CheckWX is a tool to help pilots better visualize weather data.  It is not intended as a substitute for an official pre-flight weather briefing.

21:00:00 UTC

UAOO METAR
Kzyl-Orda Southwest Airport
Kzyl-Orda, Kazakhstan
Current

30 mins ago

UAOO 172030Z 13002MPS CAVOK 13/02 Q1016 R05/CLRD70 NOSIG RMK QFE750/1001
Observed
Sep-17 @ 20:30 UTC
Wind
  • 130° at 4 KTS
Visibility
10,000+ meters
Flight Rules
VFR
Cloud Levels
  • Clear skies
Temperature
13°C / 55°F
Dewpoint
C / 36°F
Humidity
47%
Altimeter
30" Hg
Pressure
1015.92 hPa
Previous

60 mins ago

UAOO 172000Z 13003MPS CAVOK 13/02 Q1016 R05/CLRD70 NOSIG RMK QFE751/1001
Observed
Sep-17 @ 20:00 UTC
Wind
  • 130° at 6 KTS
Visibility
10,000+ meters
Flight Rules
VFR
Cloud Levels
  • Clear skies
Temperature
13°C / 55°F
Dewpoint
C / 36°F
Humidity
47%
Altimeter
30" Hg
Pressure
1015.92 hPa
Previous

2 hours ago

UAOO 171930Z 14003MPS CAVOK 13/02 Q1016 NOSIG RMK QFE750/1001
Observed
Sep-17 @ 19:30 UTC
Wind
  • 140° at 6 KTS
Visibility
10,000+ meters
Flight Rules
VFR
Cloud Levels
  • Clear skies
Temperature
13°C / 55°F
Dewpoint
C / 36°F
Humidity
47%
Altimeter
30" Hg
Pressure
1015.92 hPa